Flight Track Log - Related Links

Times and Time Zones

All times are in EST time to prevent confusion due to time zone crossing. See the EJA922 flight status page for this flight to view local times or setup timezone preferences in your user account.

Time Position Orientation Groundspeed Altitude Reporting Facility
EST Latitude Longitude Course Direction KTS MPH feet Rate Location/Type
Mon 04:23:13 PM 41.8167 -87.8333 243° Southwest 220 253 2,900  Level Chicago TRACON
Mon 04:24:13 PM 41.7833 -87.9000 236° Southwest 235 270 3,300 938 Climbing Chicago TRACON
Mon 04:25:21 PM 41.7467 -87.9917 242° Southwest 235 270 4,900 1,615 Climbing Chicago Center
Mon 04:26:23 PM 41.7106 -88.0703 238° Southwest 242 278 6,800 1,887 Climbing Chicago Center
Mon 04:27:25 PM 41.6800 -88.1547 244° Southwest 254 292 8,800 1,920 Climbing Chicago Center
Mon 04:28:00 PM 41.5204 -88.5114 243° Southwest  Level Estimated
Mon 04:28:28 PM 41.6711 -88.2461 263° West 250 288 10,800  Level Chicago Center
Mon 04:29:30 PM 41.6925 -88.3444 286° West 231 266 12,800 2,468 Climbing Chicago Center
Mon 04:30:32 PM 41.7133 -88.4325 288° West 246 283 15,900 2,323 Climbing Chicago Center
Mon 04:31:34 PM 41.7353 -88.5297 287° West 272 313 17,600 1,984 Climbing Chicago Center
Mon 04:32:36 PM 41.7508 -88.6531 280° West 309 356 20,000 2,081 Climbing Chicago Center
Mon 04:33:38 PM 41.7514 -88.7556 270° West 315 362 21,900 2,274 Climbing Chicago Center
Mon 04:34:40 PM 41.7517 -88.8978 270° West 320 368 24,700 2,304 Climbing Chicago Center
Mon 04:35:43 PM 41.7517 -89.0189 270° West 328 377 26,700 1,984 Climbing Chicago Center
Mon 04:36:44 PM 41.7511 -89.1458 270° West 341 392 28,800 2,098 Climbing Chicago Center
Mon 04:37:46 PM 41.7136 -89.2703 248° West 366 421 31,000 1,548 Climbing Chicago Center
Mon 04:38:48 PM 41.6706 -89.3914 245° Southwest 362 417 32,000 677 Climbing Chicago Center
Mon 04:39:50 PM 41.6100 -89.5533 243° Southwest 396 456 32,400 629 Climbing Chicago Center
Mon 04:40:52 PM 41.5522 -89.7008 242° Southwest 437 503 33,300 768 Climbing Chicago Center
Mon 04:41:55 PM 41.4967 -89.8403 242° Southwest 433 498 34,000 336 Climbing Chicago Center
Mon 04:42:57 PM 41.4392 -89.9783 241° Southwest 430 495 34,000  Level Chicago Center
Mon 04:43:59 PM 41.3828 -90.1133 241° Southwest 424 488 34,000  Level Chicago Center
Mon 04:45:01 PM 41.3164 -90.2731 241° Southwest 417 480 34,000  Level Chicago Center
Mon 04:46:03 PM 41.2617 -90.4028 241° Southwest 410 472 34,000  Level Chicago Center
Mon 04:47:05 PM 41.2064 -90.5331 241° Southwest 406 467 34,000  Level Chicago Center
Mon 04:48:07 PM 41.1525 -90.6606 241° Southwest 401 461 34,000  Level Chicago Center
Mon 04:49:09 PM 41.0981 -90.7894 241° Southwest 402 463 34,000  Level Chicago Center
Mon 04:50:11 PM 41.0433 -90.9172 240° Southwest 400 460 34,000  Level Chicago Center
Mon 04:51:13 PM 40.9767 -91.0706 240° Southwest 403 464 34,000  Level Chicago Center
Mon 04:52:15 PM 40.9217 -91.1983 240° Southwest 401 461 34,000  Level Chicago Center
Mon 04:53:17 PM 40.8697 -91.3206 241° Southwest 404 465 34,000  Level Chicago Center
Mon 04:54:20 PM 40.8131 -91.4481 240° Southwest 405 466 34,000  Level Chicago Center
Mon 04:55:22 PM 40.7367 -91.5972 236° Southwest 414 476 34,000  Level Chicago Center
Mon 04:56:24 PM 40.6664 -91.7161 232° Southwest 417 480 34,000  Level Chicago Center
Mon 04:57:03 PM 40.6217 -91.7869 230° Southwest 418 481 34,000  Level Kansas City Center
Mon 04:58:05 PM 40.5497 -91.9056 231° Southwest 418 481 34,000  Level Kansas City Center
Mon 04:59:09 PM 40.4669 -92.0503 233° Southwest 417 480 34,000  Level Kansas City Center
Mon 05:00:11 PM 40.4772 -92.1875 276° West 394 453 34,000  Level Kansas City Center
Mon 05:01:13 PM 40.5736 -92.2564 332° Northwest 425 489 34,000  Level Kansas City Center
Mon 05:01:48 PM 40.6492 -92.2242 18° North 467 537 34,000  Level Chicago Center
Mon 05:02:50 PM 40.7689 -92.1186 34° Northeast 513 590 34,000  Level Chicago Center
Mon 05:03:52 PM 40.8894 -92.0167 33° Northeast 518 596 34,000  Level Chicago Center
Mon 05:04:54 PM 41.0358 -91.8950 32° Northeast 521 600 34,000  Level Chicago Center
Mon 05:05:56 PM 41.1553 -91.7922 33° Northeast 518 596 34,000  Level Chicago Center
Mon 05:06:58 PM 41.2758 -91.6894 33° Northeast 516 594 34,000  Level Chicago Center
Mon 05:08:00 PM 41.3936 -91.5900 32° Northeast 511 588 34,000  Level Chicago Center
Mon 05:09:02 PM 41.5103 -91.4889 33° Northeast 506 582 34,000  Level Chicago Center
Mon 05:10:04 PM 41.6500 -91.3667 33° Northeast 505 581 34,000  Level Chicago Center
Mon 05:11:06 PM 41.7617 -91.2719 32° Northeast 492 566 34,000  Level Chicago Center
Mon 05:12:09 PM 41.8742 -91.1733 33° Northeast 489 563 34,000  Level Chicago Center
Mon 05:13:11 PM 41.9881 -91.0756 33° Northeast 490 564 34,000  Level Chicago Center
Mon 05:14:13 PM 42.1239 -90.9556 33° Northeast 492 566 34,000  Level Chicago Center
Mon 05:15:15 PM 42.2328 -90.8608 33° Northeast 480 552 34,000  Level Chicago Center
Mon 05:16:17 PM 42.3428 -90.7631 33° Northeast 479 551 34,000  Level Chicago Center
Mon 05:17:19 PM 42.4539 -90.6672 32° Northeast 478 550 34,000  Level Chicago Center
Mon 05:18:21 PM 42.5642 -90.5769 31° Northeast 472 543 34,000 -97 Level Chicago Center
Mon 05:19:23 PM 42.6978 -90.4683 31° Northeast 472 543 33,800 -339 Descending Chicago Center
Mon 05:20:25 PM 42.8117 -90.3769 30° Northeast 477 549 33,300 -2,016 Descending Chicago Center
Mon 05:21:28 PM 42.9300 -90.2814 31° Northeast 494 568 29,600 -2,976 Descending Chicago Center
Mon 05:22:30 PM 43.0519 -90.1819 31° Northeast 510 587 27,100 -1,258 Descending Chicago Center
Mon 05:23:32 PM 43.1714 -90.0792 32° Northeast 472 543 27,000 -48 Descending Chicago Center
Mon 05:24:34 PM 43.2747 -89.9933 31° Northeast 440 506 27,000 -532 Level Chicago Center
Mon 05:25:36 PM 43.3783 -89.9072 31° Northeast 436 502 25,900 -1,016 Descending Chicago Center
Mon 05:26:38 PM 43.4833 -89.7661 44° Northeast 469 540 24,900 -1,548 Descending Chicago Center
Mon 05:27:40 PM 43.4889 -89.5828 88° East 494 568 22,700 -2,177 Descending Chicago Center
Mon 05:28:42 PM 43.4458 -89.4092 109° East 480 552 20,400 -2,226 Descending Chicago Center
Mon 05:29:44 PM 43.3969 -89.2397 112° Southeast 480 552 18,100 -2,032 Descending Chicago Center
Mon 05:30:46 PM 43.3494 -89.0764 112° Southeast 467 537 16,200 -2,129 Descending Chicago Center
Mon 05:31:48 PM 43.2958 -88.8942 112° Southeast 436 502 13,700 -2,177 Descending Chicago Center
Mon 05:32:50 PM 43.2539 -88.7514 112° Southeast 415 478 11,700 -1,742 Descending Chicago Center
Mon 05:33:52 PM 43.2147 -88.6186 112° Southeast 391 450 10,100 -774 Descending Chicago Center
Mon 05:34:54 PM 43.1781 -88.4942 112° Southeast 367 422 10,100  Level Chicago Center
Mon 05:35:56 PM 43.1414 -88.3736 113° Southeast 352 405 10,100 -968 Level Chicago Center
Mon 05:36:58 PM 43.1025 -88.2436 112° Southeast 314 361 8,100 -1,645 Descending Chicago Center
Mon 05:38:00 PM 43.0564 -88.1458 123° Southeast 308 354 6,700 -1,344 Descending Chicago Center
Mon 05:39:03 PM 43.0072 -88.0661 130° Southeast 283 326 5,300 -1,632 Descending Chicago Center
Mon 05:40:05 PM 42.9508 -88.0294 155° Southeast 250 288 3,300 -1,065 Descending Chicago Center
Mon 05:41:07 PM 42.8933 -88.0161 170° South 223 257 3,100 -194 Descending Chicago Center
Mon 05:42:09 PM 42.8383 -87.9994 167° South 211 243 2,900 -290 Descending Chicago Center
Mon 05:43:11 PM 42.8289 -87.9250 100° East 203 234 2,500 -387 Descending Chicago Center
Mon 05:44:13 PM 42.8597 -87.9103 19° North 155 178 2,100 -537 Descending Chicago Center
Mon 05:45:14 PM 42.8972 -87.9033 North 142 163 1,400 -689 Descending Chicago Center
Mon 05:47:00 PM 42.9333 -87.8833 124° Southeast  Level FlightAware Approximate
Mon 05:54:00 PM 42.9469 -87.8971 124° Southeast  Level Estimated

Login

Don't have an account? Register now (free) for customized features, flight alerts, and more!